Aérodrome :
LOGIN :

S'inscrire | Disclaimer

   EN    FR    IT 

 










Légende :    VFR   VFR Marginal   IFR   IFR Intensif   IFR Très Intensif
Visi : 
Plafond : 
>= 8 km
>= 3000ft
5 à 8 km
1000 à 3000 ft
1500m à 5 km
500 à 1000 ft
800 à 1500m
200 à 500 ft
< 800m
< 200 ft
Symboles :   Orages  Brouillard  Fortes neiges  Fortes précipitations  Vent > 20 kt
SIGMETs :   Divers  Orages  Givrage  Turbulence  Onde Orograph.  Cendres Volcan.







- Altitude de l'aérodrome : 308 ft
- Code IATA : POZ


EPPO - Poznan-Lawica

DERNIER METAR :
  • 281000Z 13011KT 9999 OVC018 21/17 Q1004

METARs EXPIRÉS :
  • 280930Z 12011KT 9999 BKN018 22/17 Q1004
  • 280900Z 10009KT 9999 SCT019 BKN035 22/17 Q1004
  • 280830Z 09009KT 9999 BKN038 22/17 Q1004
  • 280800Z 08009KT 9999 FEW020 SCT034 21/16 Q1004
  • 280730Z 07009KT CAVOK 21/15 Q1004

TAF TAF EPPO
Valide du 28 à 06h jusqu'au 29 à 06h UTC


280530Z 2806/2906 09006KT CAVOK
PROB30
TEMPO 2806/2807 BKN007
TEMPO 2814/2822 VRB16G36KT 2800 TSRAGR BKN013 BKN030CB
TEMPO 2822/2902 BKN024CB
Pas de NOTAMs connus pour ce terrain.



MET'MAP, la Météo Aéronautique d'un coup d'oeil ! - Copyright ORBIFLY Décembre 2007 - Disclaimer

ORBIFLY MET'MAP TEAM :

Programmation & Développement : Alexandra Zaïnal
Conception & Développement : Baudouin d'Aumeries
Co-Programmation & Développement : Marc-Olivier Méhu
Soutien technique & logistique : Manuel Goepfert

Contact : metmap@orbifly.com




SOURCES & CREDITS :

   NOAA